Time;durP1;ratioP1;P1;durP2;ratioP2;P2;SDS_P1;SDS_P2;PMS_P1;PMS_P2;Temp;Humidity;BMP_temperature;BMP_pressure;BME280_temperature;BME280_humidity;BME280_pressure;Samples;Min_cycle;Max_cycle;Signal;HPM_P1;HPM_P2
2022/09/30 00:01:35;;;;;;;;;29.75;29.25;;;;;;;;5032257;27;51091;-52
2022/09/30 00:04:00;;;;;;;;;24.50;23.25;;;;;;;;5012489;28;51158;-48
2022/09/30 00:06:26;;;;;;;;;28.00;28.00;;;;;;;;5022370;27;51034;-49
2022/09/30 00:08:52;;;;;;;;;21.25;21.25;;;;;;;;5021818;28;51003;-48
2022/09/30 00:11:19;;;;;;;;;26.00;24.50;;;;;;;;5011967;28;51980;-48
2022/09/30 00:13:45;;;;;;;;;25.25;24.50;;;;;;;;5010115;28;51097;-51
2022/09/30 00:16:11;;;;;;;;;26.25;23.75;;;;;;;;5020461;27;51317;-50
2022/09/30 00:18:37;;;;;;;;;26.00;23.25;;;;;;;;5010561;28;51108;-49
2022/09/30 00:21:03;;;;;;;;;29.50;26.00;;;;;;;;5010281;27;52085;-48
2022/09/30 00:23:28;;;;;;;;;24.00;22.50;;;;;;;;5010544;28;51010;-50
2022/09/30 00:25:57;;;;;;;;;27.25;24.50;;;;;;;;5010577;27;50825;-48
2022/09/30 00:28:22;;;;;;;;;22.75;21.75;;;;;;;;5009130;28;50992;-49
2022/09/30 00:30:48;;;;;;;;;25.25;24.75;;;;;;;;5009905;27;51233;-49
2022/09/30 00:33:13;;;;;;;;;21.50;20.75;;;;;;;;5010294;27;51187;-49
2022/09/30 00:35:38;;;;;;;;;19.50;19.00;;;;;;;;5010905;27;51273;-49
2022/09/30 00:38:03;;;;;;;;;19.25;19.25;;;;;;;;5010997;27;51487;-50
2022/09/30 00:40:29;;;;;;;;;25.00;21.00;;;;;;;;5010686;27;52730;-49
2022/09/30 00:42:54;;;;;;;;;22.25;21.50;;;;;;;;5010247;28;51131;-50
2022/09/30 00:45:20;;;;;;;;;24.50;24.50;;;;;;;;5011184;28;51427;-50
2022/09/30 00:47:54;;;;;;;;;29.00;27.00;;;;;;;;5011218;28;51138;-51
2022/09/30 00:50:41;;;;;;;;;28.00;24.50;;;;;;;;5010313;27;50991;-52
2022/09/30 00:53:06;;;;;;;;;28.50;26.50;;;;;;;;5019291;28;51229;-49
2022/09/30 00:55:39;;;;;;;;;28.50;27.25;;;;;;;;5011408;27;50985;-50
2022/09/30 00:58:07;;;;;;;;;24.00;23.00;;;;;;;;5010991;28;51015;-50
2022/09/30 01:00:33;;;;;;;;;25.00;24.75;;;;;;;;5029381;27;51925;-50
2022/09/30 01:02:58;;;;;;;;;23.75;22.25;;;;;;;;5031841;27;50931;-50
2022/09/30 01:05:25;;;;;;;;;20.25;19.00;;;;;;;;5011413;28;51493;-50
2022/09/30 01:07:50;;;;;;;;;25.00;22.50;;;;;;;;5011136;28;51169;-52
2022/09/30 01:10:16;;;;;;;;;20.00;19.50;;;;;;;;5012199;27;51194;-51
2022/09/30 01:12:41;;;;;;;;;21.75;21.75;;;;;;;;5011014;27;51093;-52
2022/09/30 01:15:06;;;;;;;;;25.25;24.75;;;;;;;;5011307;28;51029;-51
2022/09/30 01:17:55;;;;;;;;;22.25;21.50;;;;;;;;5025014;27;51354;-53
2022/09/30 01:20:51;;;;;;;;;25.50;24.50;;;;;;;;5013183;28;51186;-50
2022/09/30 01:23:22;;;;;;;;;22.75;21.50;;;;;;;;5007804;28;51010;-51
2022/09/30 01:26:06;;;;;;;;;23.00;22.50;;;;;;;;5008091;28;50940;-51
2022/09/30 01:28:40;;;;;;;;;23.50;23.50;;;;;;;;5010803;28;51353;-52
2022/09/30 01:31:14;;;;;;;;;23.00;21.25;;;;;;;;5010456;27;51048;-50
2022/09/30 01:33:47;;;;;;;;;28.00;27.50;;;;;;;;5010701;28;51147;-50
2022/09/30 01:36:12;;;;;;;;;25.50;25.00;;;;;;;;5011145;28;51000;-49
2022/09/30 01:38:53;;;;;;;;;25.25;25.25;;;;;;;;5010877;27;50881;-52
2022/09/30 01:41:24;;;;;;;;;24.00;24.00;;;;;;;;5010741;28;51822;-49
2022/09/30 01:43:57;;;;;;;;;25.50;24.00;;;;;;;;5010383;27;50916;-52
2022/09/30 01:46:36;;;;;;;;;23.50;22.50;;;;;;;;5010832;28;51232;-50
2022/09/30 01:49:04;;;;;;;;;19.75;19.25;;;;;;;;5011026;27;50875;-51
2022/09/30 01:51:34;;;;;;;;;24.25;23.00;;;;;;;;5010409;27;51808;-51
2022/09/30 01:54:03;;;;;;;;;21.50;21.25;;;;;;;;5018758;28;50930;-51
2022/09/30 01:56:36;;;;;;;;;23.50;23.25;;;;;;;;5009224;28;51102;-50
2022/09/30 01:59:05;;;;;;;;;20.00;20.00;;;;;;;;5009301;28;51261;-49
2022/09/30 02:01:38;;;;;;;;;22.75;21.50;;;;;;;;5050188;27;51155;-50
2022/09/30 02:04:15;;;;;;;;;23.75;22.00;;;;;;;;5010582;27;50910;-51
2022/09/30 02:06:42;;;;;;;;;21.50;19.50;;;;;;;;5010378;27;51116;-49
2022/09/30 02:09:13;;;;;;;;;20.00;19.00;;;;;;;;5010695;28;51245;-50
2022/09/30 02:11:40;;;;;;;;;27.00;24.75;;;;;;;;5009255;28;52921;-50
2022/09/30 02:14:14;;;;;;;;;18.50;17.75;;;;;;;;5010055;28;50959;-51
2022/09/30 02:16:48;;;;;;;;;23.00;21.50;;;;;;;;5024615;27;51082;-50
2022/09/30 02:19:17;;;;;;;;;19.00;18.75;;;;;;;;5010422;28;50907;-49
2022/09/30 02:21:43;;;;;;;;;21.00;20.00;;;;;;;;5010189;28;52144;-49
2022/09/30 02:24:11;;;;;;;;;22.00;20.00;;;;;;;;5010427;28;50867;-49
2022/09/30 02:26:39;;;;;;;;;21.00;19.00;;;;;;;;5010314;28;50898;-50
2022/09/30 02:29:07;;;;;;;;;22.50;21.00;;;;;;;;5009971;28;51116;-48
2022/09/30 02:31:35;;;;;;;;;25.75;24.75;;;;;;;;5010000;28;51864;-49
2022/09/30 02:34:21;;;;;;;;;21.75;21.25;;;;;;;;5010081;28;51091;-49
2022/09/30 02:36:51;;;;;;;;;20.25;20.25;;;;;;;;5009951;28;50913;-50
2022/09/30 02:39:35;;;;;;;;;23.75;20.00;;;;;;;;5010478;28;50953;-51
2022/09/30 02:42:05;;;;;;;;;18.75;18.00;;;;;;;;5009768;28;52317;-49
2022/09/30 02:44:30;;;;;;;;;20.50;19.25;;;;;;;;5009786;28;50980;-51
2022/09/30 02:47:10;;;;;;;;;21.25;18.75;;;;;;;;5009992;28;51045;-51
2022/09/30 02:50:06;;;;;;;;;21.50;18.50;;;;;;;;5010120;27;51070;-49
2022/09/30 02:52:41;;;;;;;;;20.50;18.00;;;;;;;;5018943;28;51979;-51
2022/09/30 02:55:09;;;;;;;;;18.75;17.25;;;;;;;;5011105;28;51144;-51
2022/09/30 02:57:41;;;;;;;;;19.25;18.50;;;;;;;;5009843;27;50893;-50
2022/09/30 03:00:07;;;;;;;;;23.75;22.25;;;;;;;;5009844;27;50949;-50
2022/09/30 03:02:32;;;;;;;;;25.00;23.00;;;;;;;;5045161;27;51744;-52
2022/09/30 03:04:57;;;;;;;;;24.75;23.75;;;;;;;;5012982;27;51048;-49
2022/09/30 03:07:22;;;;;;;;;21.50;20.25;;;;;;;;5009680;28;50991;-51
2022/09/30 03:09:48;;;;;;;;;22.50;21.25;;;;;;;;5014097;28;51307;-50
2022/09/30 03:12:16;;;;;;;;;24.00;23.50;;;;;;;;5005844;27;51795;-52
2022/09/30 03:14:44;;;;;;;;;22.25;20.50;;;;;;;;5012810;28;51503;-50
2022/09/30 03:17:16;;;;;;;;;23.25;23.25;;;;;;;;5017894;27;51049;-49
2022/09/30 03:19:53;;;;;;;;;22.00;22.00;;;;;;;;5009569;28;50908;-51
2022/09/30 03:22:33;;;;;;;;;23.25;22.00;;;;;;;;5007821;27;52045;-49
2022/09/30 03:25:17;;;;;;;;;22.75;19.75;;;;;;;;5006796;27;51042;-51
2022/09/30 03:28:03;;;;;;;;;28.50;28.50;;;;;;;;5012064;27;50780;-51
2022/09/30 03:30:31;;;;;;;;;28.25;22.00;;;;;;;;5012456;28;51178;-50
2022/09/30 03:33:20;;;;;;;;;22.75;20.00;;;;;;;;5012062;28;51088;-49
2022/09/30 03:35:46;;;;;;;;;23.00;22.50;;;;;;;;5011964;28;51064;-50
2022/09/30 03:38:30;;;;;;;;;22.00;22.00;;;;;;;;5012090;28;51196;-50
2022/09/30 03:40:55;;;;;;;;;21.75;20.25;;;;;;;;5011218;28;52078;-49
2022/09/30 03:43:31;;;;;;;;;23.00;22.00;;;;;;;;5011784;28;51106;-49
2022/09/30 03:46:00;;;;;;;;;19.75;18.75;;;;;;;;5012445;28;51037;-51
2022/09/30 03:48:26;;;;;;;;;22.50;21.75;;;;;;;;5012234;27;51046;-50
2022/09/30 03:50:51;;;;;;;;;21.00;18.00;;;;;;;;5020459;28;51292;-53
2022/09/30 03:53:17;;;;;;;;;19.25;18.75;;;;;;;;5017053;28;51178;-51
2022/09/30 03:55:43;;;;;;;;;22.75;21.50;;;;;;;;5020641;28;51115;-52
2022/09/30 03:58:09;;;;;;;;;21.25;21.00;;;;;;;;5017869;28;51110;-50
2022/09/30 04:00:34;;;;;;;;;20.25;19.75;;;;;;;;5033302;27;51131;-51
2022/09/30 04:02:59;;;;;;;;;25.00;22.50;;;;;;;;5029701;27;52063;-50
2022/09/30 04:05:24;;;;;;;;;21.00;19.75;;;;;;;;5027685;27;50980;-49
2022/09/30 04:07:49;;;;;;;;;19.75;18.00;;;;;;;;5016324;27;51104;-49
2022/09/30 04:10:15;;;;;;;;;22.75;22.50;;;;;;;;5020274;27;51131;-49
2022/09/30 04:12:40;;;;;;;;;17.50;15.75;;;;;;;;5026185;27;51078;-52
2022/09/30 04:15:05;;;;;;;;;19.25;19.25;;;;;;;;5011790;27;51164;-48
2022/09/30 04:17:30;;;;;;;;;23.75;22.25;;;;;;;;5021312;27;51656;-52
2022/09/30 04:19:56;;;;;;;;;22.50;18.75;;;;;;;;5011818;27;50974;-51
2022/09/30 04:22:21;;;;;;;;;19.50;18.00;;;;;;;;5013580;27;51955;-50
2022/09/30 04:24:46;;;;;;;;;22.00;22.00;;;;;;;;5020090;27;50925;-51
2022/09/30 04:27:11;;;;;;;;;20.25;19.75;;;;;;;;5011586;28;50973;-51
2022/09/30 04:29:36;;;;;;;;;20.25;19.75;;;;;;;;5013205;27;51012;-52
2022/09/30 04:32:02;;;;;;;;;17.75;17.25;;;;;;;;5014612;27;52418;-51
2022/09/30 04:34:27;;;;;;;;;17.00;17.00;;;;;;;;5020553;28;51048;-49
2022/09/30 04:36:52;;;;;;;;;16.75;16.00;;;;;;;;5011144;28;51229;-47
2022/09/30 04:39:17;;;;;;;;;20.00;20.00;;;;;;;;5011260;28;51311;-51
2022/09/30 04:41:43;;;;;;;;;17.75;17.75;;;;;;;;5015618;28;52134;-51
2022/09/30 04:44:08;;;;;;;;;18.50;18.50;;;;;;;;5026277;27;50851;-49
2022/09/30 04:46:35;;;;;;;;;15.50;15.25;;;;;;;;5019999;28;51265;-49
2022/09/30 04:49:00;;;;;;;;;22.75;21.50;;;;;;;;5014378;28;51283;-50
2022/09/30 04:51:26;;;;;;;;;19.50;18.25;;;;;;;;5022871;28;50990;-50
2022/09/30 04:53:51;;;;;;;;;20.25;18.00;;;;;;;;5019499;28;51275;-51
2022/09/30 04:56:17;;;;;;;;;19.75;17.25;;;;;;;;5012046;27;51084;-51
2022/09/30 04:58:42;;;;;;;;;15.00;14.00;;;;;;;;5014073;28;51139;-50
2022/09/30 05:01:12;;;;;;;;;17.25;17.00;;;;;;;;5039538;27;51088;-52
2022/09/30 05:03:37;;;;;;;;;17.75;17.00;;;;;;;;5011115;28;51058;-52
2022/09/30 05:06:03;;;;;;;;;18.00;17.00;;;;;;;;5022104;28;51295;-51
2022/09/30 05:08:29;;;;;;;;;15.75;15.75;;;;;;;;5022932;28;51292;-50
2022/09/30 05:10:56;;;;;;;;;17.50;17.50;;;;;;;;5010505;28;51170;-50
2022/09/30 05:13:21;;;;;;;;;16.25;16.25;;;;;;;;5004483;27;52510;-50
2022/09/30 05:15:50;;;;;;;;;17.25;16.75;;;;;;;;5024756;27;51451;-51
2022/09/30 05:18:15;;;;;;;;;15.75;15.75;;;;;;;;5010510;28;51165;-48
2022/09/30 05:20:41;;;;;;;;;18.25;16.00;;;;;;;;5018546;27;51064;-49
2022/09/30 05:23:06;;;;;;;;;17.00;16.50;;;;;;;;5020157;28;51261;-48
2022/09/30 05:25:33;;;;;;;;;19.00;16.75;;;;;;;;5013109;28;51500;-48
2022/09/30 05:27:58;;;;;;;;;15.00;15.00;;;;;;;;5011569;27;51072;-51
2022/09/30 05:30:23;;;;;;;;;21.75;21.00;;;;;;;;5020450;27;51275;-50
2022/09/30 05:32:50;;;;;;;;;21.75;20.75;;;;;;;;5034894;27;51061;-49
2022/09/30 05:35:15;;;;;;;;;18.50;17.75;;;;;;;;5058187;27;51218;-50
2022/09/30 05:37:40;;;;;;;;;17.25;17.00;;;;;;;;5033039;27;50859;-49
2022/09/30 05:40:06;;;;;;;;;17.50;17.00;;;;;;;;5018689;28;52369;-56
2022/09/30 05:42:35;;;;;;;;;18.25;18.00;;;;;;;;5054665;27;51105;-49
2022/09/30 05:45:01;;;;;;;;;16.50;16.50;;;;;;;;5015825;28;51163;-48
2022/09/30 05:47:26;;;;;;;;;18.25;18.25;;;;;;;;5023693;28;50928;-48
2022/09/30 05:49:52;;;;;;;;;20.00;20.00;;;;;;;;5019453;27;51222;-51
2022/09/30 05:52:17;;;;;;;;;20.50;19.50;;;;;;;;5015878;28;50930;-50
2022/09/30 05:54:42;;;;;;;;;22.00;19.25;;;;;;;;5047953;27;51235;-50
2022/09/30 05:57:07;;;;;;;;;24.00;22.50;;;;;;;;5016605;27;51017;-50
2022/09/30 05:59:33;;;;;;;;;22.00;21.50;;;;;;;;5013175;28;53390;-51
2022/09/30 06:01:58;;;;;;;;;23.25;22.25;;;;;;;;5031905;27;51092;-50
2022/09/30 06:04:23;;;;;;;;;23.50;23.25;;;;;;;;5009717;28;51125;-51
2022/09/30 06:06:48;;;;;;;;;24.75;24.00;;;;;;;;5025786;27;51036;-48
2022/09/30 06:09:13;;;;;;;;;20.75;19.25;;;;;;;;5019542;27;51108;-49
2022/09/30 06:11:41;;;;;;;;;23.00;22.00;;;;;;;;5015443;28;51070;-51
2022/09/30 06:14:06;;;;;;;;;24.00;21.00;;;;;;;;5027794;27;50911;-51
2022/09/30 06:16:32;;;;;;;;;21.50;20.75;;;;;;;;5024317;27;51229;-52
2022/09/30 06:18:58;;;;;;;;;22.50;22.00;;;;;;;;5009371;27;51160;-50
2022/09/30 06:21:23;;;;;;;;;20.25;19.75;;;;;;;;5036739;27;51183;-50
2022/09/30 06:23:48;;;;;;;;;15.50;15.25;;;;;;;;5042749;27;51227;-50
2022/09/30 06:26:14;;;;;;;;;22.00;21.00;;;;;;;;5009710;28;51344;-49
2022/09/30 06:28:39;;;;;;;;;10.75;10.50;;;;;;;;5007643;28;53710;-49
2022/09/30 06:31:05;;;;;;;;;22.25;22.25;;;;;;;;5009888;28;51088;-50
2022/09/30 06:33:31;;;;;;;;;19.00;18.50;;;;;;;;5018307;28;51111;-50
2022/09/30 06:35:56;;;;;;;;;21.50;18.75;;;;;;;;5017369;27;51356;-50
2022/09/30 06:38:22;;;;;;;;;21.50;21.50;;;;;;;;5026035;28;51148;-49
2022/09/30 06:40:50;;;;;;;;;22.75;19.50;;;;;;;;5016348;28;51087;-50
2022/09/30 06:43:16;;;;;;;;;26.00;24.00;;;;;;;;5016881;28;50902;-51
2022/09/30 06:45:43;;;;;;;;;24.50;23.00;;;;;;;;5010715;28;51206;-49
2022/09/30 06:48:08;;;;;;;;;24.25;23.75;;;;;;;;5008373;28;51248;-50
2022/09/30 06:50:34;;;;;;;;;22.75;22.25;;;;;;;;5009845;28;51068;-51
2022/09/30 06:53:00;;;;;;;;;26.00;24.00;;;;;;;;5013683;27;51220;-50
2022/09/30 06:55:26;;;;;;;;;20.25;19.50;;;;;;;;5009881;28;51142;-49
2022/09/30 06:57:52;;;;;;;;;24.75;24.75;;;;;;;;5016327;28;51721;-50
2022/09/30 07:00:17;;;;;;;;;25.75;23.00;;;;;;;;5032302;27;51136;-51
2022/09/30 07:02:42;;;;;;;;;30.00;29.00;;;;;;;;5017493;28;50790;-52
2022/09/30 07:05:08;;;;;;;;;39.25;34.25;;;;;;;;5016956;28;51333;-50
2022/09/30 07:07:35;;;;;;;;;23.75;22.00;;;;;;;;5025383;28;51173;-49
2022/09/30 07:10:03;;;;;;;;;25.00;22.75;;;;;;;;5027377;27;50932;-50
2022/09/30 07:12:29;;;;;;;;;28.50;28.25;;;;;;;;5008813;28;51183;-52
2022/09/30 07:14:55;;;;;;;;;29.00;26.50;;;;;;;;5006946;27;51363;-51
2022/09/30 07:17:20;;;;;;;;;24.25;23.50;;;;;;;;5026749;27;51075;-49
2022/09/30 07:19:45;;;;;;;;;24.00;23.75;;;;;;;;5009190;28;51069;-49
2022/09/30 07:22:26;;;;;;;;;24.00;24.00;;;;;;;;5007463;28;51181;-48
2022/09/30 07:24:51;;;;;;;;;24.50;23.00;;;;;;;;5002913;28;50814;-50
2022/09/30 07:27:17;;;;;;;;;21.25;20.00;;;;;;;;5008529;28;51906;-50
2022/09/30 07:29:44;;;;;;;;;24.00;22.50;;;;;;;;5007642;28;51401;-52
2022/09/30 07:32:09;;;;;;;;;21.00;20.50;;;;;;;;5009129;27;51184;-50
2022/09/30 07:34:35;;;;;;;;;23.25;21.75;;;;;;;;5009405;28;51281;-48
2022/09/30 07:37:02;;;;;;;;;21.50;20.00;;;;;;;;5009158;27;51852;-48
2022/09/30 07:39:28;;;;;;;;;24.50;23.25;;;;;;;;5009823;28;50998;-50
2022/09/30 07:41:53;;;;;;;;;25.75;25.50;;;;;;;;5008660;28;51033;-49
2022/09/30 07:44:18;;;;;;;;;22.00;20.75;;;;;;;;5009249;28;50871;-49
2022/09/30 07:46:44;;;;;;;;;24.25;22.50;;;;;;;;5008602;28;51103;-49
2022/09/30 07:49:12;;;;;;;;;27.50;25.25;;;;;;;;5009094;28;50935;-50
2022/09/30 07:51:39;;;;;;;;;22.75;22.25;;;;;;;;5006742;28;51255;-49
2022/09/30 07:54:04;;;;;;;;;21.50;20.50;;;;;;;;5019741;28;51188;-49
2022/09/30 07:56:30;;;;;;;;;23.75;23.25;;;;;;;;5008495;27;51907;-48
2022/09/30 07:58:56;;;;;;;;;22.67;21.67;;;;;;;;5008633;28;51019;-52
2022/09/30 08:01:25;;;;;;;;;24.25;23.25;;;;;;;;5058875;27;51051;-48
2022/09/30 08:03:54;;;;;;;;;22.00;21.00;;;;;;;;5009155;28;51211;-52
2022/09/30 08:06:20;;;;;;;;;18.33;17.67;;;;;;;;5008102;28;52092;-52
2022/09/30 08:08:45;;;;;;;;;21.33;19.33;;;;;;;;5008675;28;51097;-51
2022/09/30 08:11:11;;;;;;;;;21.67;21.00;;;;;;;;5010831;27;51220;-50
2022/09/30 08:13:37;;;;;;;;;20.25;20.00;;;;;;;;5011945;28;51137;-52
2022/09/30 08:16:03;;;;;;;;;26.25;22.00;;;;;;;;5034237;27;53057;-50
2022/09/30 08:18:28;;;;;;;;;25.00;23.00;;;;;;;;5010427;28;50952;-53
2022/09/30 08:20:54;;;;;;;;;19.67;19.00;;;;;;;;5012034;28;50842;-53
2022/09/30 08:23:19;;;;;;;;;20.00;20.00;;;;;;;;5012304;27;51264;-50
2022/09/30 08:25:44;;;;;;;;;19.67;18.67;;;;;;;;5011121;28;51051;-49
2022/09/30 08:28:09;;;;;;;;;23.25;23.25;;;;;;;;5011121;28;51031;-49
2022/09/30 08:30:35;;;;;;;;;18.25;17.75;;;;;;;;5009901;27;51195;-53
2022/09/30 08:33:00;;;;;;;;;20.00;19.50;;;;;;;;5011555;28;51067;-52
2022/09/30 08:35:26;;;;;;;;;20.50;20.00;;;;;;;;5010513;27;53045;-51
2022/09/30 08:37:51;;;;;;;;;23.00;21.00;;;;;;;;5010754;27;51146;-49
2022/09/30 08:40:19;;;;;;;;;20.50;20.00;;;;;;;;5011177;27;51146;-49
2022/09/30 08:42:56;;;;;;;;;21.75;21.75;;;;;;;;5011386;27;51045;-52
2022/09/30 08:45:30;;;;;;;;;20.25;19.75;;;;;;;;5010877;27;52454;-49
2022/09/30 08:48:05;;;;;;;;;21.50;20.75;;;;;;;;5010836;28;51011;-52
2022/09/30 08:50:45;;;;;;;;;18.75;18.25;;;;;;;;5000988;28;51043;-52
2022/09/30 08:53:16;;;;;;;;;20.33;19.33;;;;;;;;5017901;28;51348;-51
2022/09/30 08:55:43;;;;;;;;;19.50;19.00;;;;;;;;5010423;28;52237;-50
2022/09/30 08:58:22;;;;;;;;;25.75;24.50;;;;;;;;5010567;28;50878;-50
2022/09/30 09:00:48;;;;;;;;;22.00;22.00;;;;;;;;5039952;27;50930;-51
2022/09/30 09:03:14;;;;;;;;;20.00;18.67;;;;;;;;5010973;28;51084;-54
2022/09/30 09:06:04;;;;;;;;;20.50;18.25;;;;;;;;5010150;28;51177;-51
2022/09/30 09:08:35;;;;;;;;;23.25;22.75;;;;;;;;5010436;28;51031;-50
2022/09/30 09:11:30;;;;;;;;;20.00;19.67;;;;;;;;5010249;27;51120;-51
2022/09/30 09:14:03;;;;;;;;;18.00;17.67;;;;;;;;5062263;28;51587;-50
2022/09/30 09:16:34;;;;;;;;;22.00;21.33;;;;;;;;5021313;27;51209;-49
2022/09/30 09:19:09;;;;;;;;;14.33;13.67;;;;;;;;5010163;28;50917;-51
2022/09/30 09:21:52;;;;;;;;;14.33;14.00;;;;;;;;5010021;28;51084;-52
2022/09/30 09:24:22;;;;;;;;;15.67;15.67;;;;;;;;5010362;28;51408;-50
2022/09/30 09:26:48;;;;;;;;;14.67;13.67;;;;;;;;5010166;28;51116;-49
2022/09/30 09:29:32;;;;;;;;;18.00;17.00;;;;;;;;5010091;27;50999;-51
2022/09/30 09:31:58;;;;;;;;;15.00;15.00;;;;;;;;5010495;28;51139;-50
2022/09/30 09:34:24;;;;;;;;;15.67;15.33;;;;;;;;5010555;28;50986;-50
2022/09/30 09:36:52;;;;;;;;;13.67;13.67;;;;;;;;5010264;28;53125;-51
2022/09/30 09:39:17;;;;;;;;;14.00;14.00;;;;;;;;5010546;27;50930;-51
2022/09/30 09:41:48;;;;;;;;;13.67;12.33;;;;;;;;5010235;27;50931;-53
2022/09/30 09:44:32;;;;;;;;;11.00;11.00;;;;;;;;5010530;27;51040;-53
2022/09/30 09:47:24;;;;;;;;;13.33;13.33;;;;;;;;5009580;28;52767;-51
2022/09/30 09:49:52;;;;;;;;;12.00;12.00;;;;;;;;5010872;28;51050;-52
2022/09/30 09:52:19;;;;;;;;;13.33;13.33;;;;;;;;5013686;28;51014;-52
2022/09/30 09:54:46;;;;;;;;;7.00;7.00;;;;;;;;5014090;28;51375;-52
2022/09/30 09:57:13;;;;;;;;;9.67;9.67;;;;;;;;5009933;27;53327;-52
2022/09/30 09:59:58;;;;;;;;;9.00;9.00;;;;;;;;5009644;28;50846;-53
2022/09/30 10:02:28;;;;;;;;;10.33;10.00;;;;;;;;5043064;27;51231;-51
2022/09/30 10:05:00;;;;;;;;;10.33;10.33;;;;;;;;5009664;28;50900;-52
2022/09/30 10:07:29;;;;;;;;;12.33;12.33;;;;;;;;5009086;28;51992;-51
2022/09/30 10:10:08;;;;;;;;;11.67;11.67;;;;;;;;5010091;28;51052;-52
2022/09/30 10:12:33;;;;;;;;;14.33;13.33;;;;;;;;5009322;27;51026;-58
2022/09/30 10:15:00;;;;;;;;;24.25;24.00;;;;;;;;5010017;28;50935;-51
2022/09/30 10:17:30;;;;;;;;;16.50;16.00;;;;;;;;5015999;27;52358;-52
2022/09/30 10:19:58;;;;;;;;;9.67;8.33;;;;;;;;5009912;28;51097;-50
2022/09/30 10:22:26;;;;;;;;;12.00;12.00;;;;;;;;5009491;28;51195;-55
2022/09/30 10:25:07;;;;;;;;;9.67;9.67;;;;;;;;5010096;28;50795;-49
2022/09/30 10:27:33;;;;;;;;;9.33;8.67;;;;;;;;5009119;28;51109;-52
2022/09/30 10:29:59;;;;;;;;;11.75;11.75;;;;;;;;5009323;28;50937;-50
2022/09/30 10:32:24;;;;;;;;;15.75;15.00;;;;;;;;5009045;28;51098;-53
2022/09/30 10:35:04;;;;;;;;;10.00;9.67;;;;;;;;5009432;28;50874;-52
2022/09/30 10:37:30;;;;;;;;;10.00;10.00;;;;;;;;5009468;28;51860;-51
2022/09/30 10:39:58;;;;;;;;;10.00;10.00;;;;;;;;5009285;28;50948;-51
2022/09/30 10:42:25;;;;;;;;;13.00;13.00;;;;;;;;5009244;28;50900;-52
2022/09/30 10:44:50;;;;;;;;;12.67;11.00;;;;;;;;5009545;28;51213;-49
2022/09/30 10:47:17;;;;;;;;;13.75;13.75;;;;;;;;5009486;27;51005;-53
2022/09/30 10:49:48;;;;;;;;;11.33;11.33;;;;;;;;5000614;28;51027;-53
2022/09/30 10:52:19;;;;;;;;;10.00;10.00;;;;;;;;5012081;28;50927;-51
2022/09/30 10:54:44;;;;;;;;;14.67;14.33;;;;;;;;5011745;28;51178;-52
2022/09/30 10:57:13;;;;;;;;;16.00;15.33;;;;;;;;5009122;27;51109;-53
2022/09/30 10:59:39;;;;;;;;;17.33;17.33;;;;;;;;5008891;28;50928;-52
2022/09/30 11:02:15;;;;;;;;;12.00;11.67;;;;;;;;5037627;27;51042;-52
2022/09/30 11:04:43;;;;;;;;;12.00;11.00;;;;;;;;5008858;28;51157;-51
2022/09/30 11:07:14;;;;;;;;;15.50;15.50;;;;;;;;5008214;27;51881;-51
2022/09/30 11:09:45;;;;;;;;;15.33;15.00;;;;;;;;5008398;28;51130;-51
2022/09/30 11:12:16;;;;;;;;;18.00;17.00;;;;;;;;5008554;28;51076;-51
2022/09/30 11:14:46;;;;;;;;;18.00;18.00;;;;;;;;5006241;27;51642;-51
2022/09/30 11:17:21;;;;;;;;;14.00;14.00;;;;;;;;5004751;27;51048;-51
2022/09/30 11:19:49;;;;;;;;;15.67;15.67;;;;;;;;5008365;28;51234;-50
2022/09/30 11:22:22;;;;;;;;;14.33;14.00;;;;;;;;5008352;27;51127;-52
2022/09/30 11:24:49;;;;;;;;;11.00;10.67;;;;;;;;5009133;28;50935;-53
2022/09/30 11:27:25;;;;;;;;;12.67;12.67;;;;;;;;5008475;28;50859;-51
2022/09/30 11:30:03;;;;;;;;;14.33;13.33;;;;;;;;5008894;28;50954;-49
2022/09/30 11:32:28;;;;;;;;;15.00;13.67;;;;;;;;5009042;27;51068;-51
2022/09/30 11:35:14;;;;;;;;;14.33;13.33;;;;;;;;5008852;27;51068;-53
2022/09/30 11:37:42;;;;;;;;;12.67;12.67;;;;;;;;5008670;28;52041;-53
2022/09/30 11:40:16;;;;;;;;;8.00;7.67;;;;;;;;5008446;27;50843;-51
2022/09/30 11:42:59;;;;;;;;;13.33;13.00;;;;;;;;5008175;28;51115;-50
2022/09/30 11:45:37;;;;;;;;;12.67;12.00;;;;;;;;5011007;28;51820;-52
2022/09/30 11:48:02;;;;;;;;;9.00;9.00;;;;;;;;5010994;28;52946;-52
2022/09/30 11:50:32;;;;;;;;;4.67;4.67;;;;;;;;5011644;27;50868;-51
2022/09/30 11:53:10;;;;;;;;;5.00;4.67;;;;;;;;5018129;28;50979;-52
2022/09/30 11:56:00;;;;;;;;;6.33;6.33;;;;;;;;5011375;28;51134;-50
2022/09/30 11:58:28;;;;;;;;;9.00;9.00;;;;;;;;5010611;28;50956;-51
2022/09/30 12:00:57;;;;;;;;;6.67;6.67;;;;;;;;5039829;27;51196;-51
2022/09/30 12:03:39;;;;;;;;;7.33;6.00;;;;;;;;5011345;28;50994;-51
2022/09/30 12:06:10;;;;;;;;;7.00;6.67;;;;;;;;5010975;28;51099;-51
2022/09/30 12:08:51;;;;;;;;;7.00;7.00;;;;;;;;5009037;28;53825;-49
2022/09/30 12:11:22;;;;;;;;;3.33;3.33;;;;;;;;5011002;28;51068;-53
2022/09/30 12:13:56;;;;;;;;;5.00;5.00;;;;;;;;5010784;28;51112;-51
2022/09/30 12:16:25;;;;;;;;;9.33;6.33;;;;;;;;5012848;27;51326;-52
2022/09/30 12:18:56;;;;;;;;;8.33;8.33;;;;;;;;5010931;28;51889;-53
2022/09/30 12:21:41;;;;;;;;;8.00;7.33;;;;;;;;5009845;27;50874;-51
2022/09/30 12:24:22;;;;;;;;;7.33;7.33;;;;;;;;5042002;27;51118;-50
2022/09/30 12:26:47;;;;;;;;;5.00;4.67;;;;;;;;5010962;28;50858;-52
2022/09/30 12:32:07;;;;;;;;;7.00;6.00;;;;;;;;5011123;28;51087;-53
2022/09/30 12:34:47;;;;;;;;;5.00;5.00;;;;;;;;5010999;28;50872;-50
2022/09/30 12:37:18;;;;;;;;;25.25;25.00;;;;;;;;5011672;28;51385;-52
2022/09/30 12:39:49;;;;;;;;;5.33;5.33;;;;;;;;5015161;27;50931;-51
2022/09/30 12:42:33;;;;;;;;;8.67;8.67;;;;;;;;5010586;27;51478;-50
2022/09/30 12:45:08;;;;;;;;;5.33;5.00;;;;;;;;5010385;28;51099;-51
2022/09/30 12:47:44;;;;;;;;;5.00;5.00;;;;;;;;5011124;28;51019;-50
2022/09/30 12:50:12;;;;;;;;;9.00;8.33;;;;;;;;5008464;28;51234;-50
2022/09/30 12:52:37;;;;;;;;;9.00;9.00;;;;;;;;5019375;27;51094;-52
2022/09/30 12:55:21;;;;;;;;;7.33;6.67;;;;;;;;5011401;28;51270;-50
2022/09/30 12:57:48;;;;;;;;;8.67;8.00;;;;;;;;5009540;28;50957;-50
2022/09/30 13:00:15;;;;;;;;;8.00;7.00;;;;;;;;5015466;27;52075;-51
2022/09/30 13:02:42;;;;;;;;;6.00;6.00;;;;;;;;5035816;27;51092;-53
2022/09/30 13:05:25;;;;;;;;;3.00;3.00;;;;;;;;5009969;28;51029;-51
2022/09/30 13:08:03;;;;;;;;;7.33;6.33;;;;;;;;5007574;28;51240;-54
2022/09/30 13:10:37;;;;;;;;;4.00;4.00;;;;;;;;5013184;28;51645;-52
2022/09/30 13:13:08;;;;;;;;;7.00;6.00;;;;;;;;5015980;27;50976;-50
2022/09/30 13:15:38;;;;;;;;;5.00;5.00;;;;;;;;5015241;27;50809;-51
2022/09/30 13:18:18;;;;;;;;;4.33;4.00;;;;;;;;5004779;28;51349;-49
2022/09/30 13:20:53;;;;;;;;;5.00;5.00;;;;;;;;5009563;27;51612;-50
2022/09/30 13:23:35;;;;;;;;;5.00;5.00;;;;;;;;5009819;27;51014;-50
2022/09/30 13:26:01;;;;;;;;;4.33;4.33;;;;;;;;5010075;27;50913;-52
2022/09/30 13:28:28;;;;;;;;;4.67;4.67;;;;;;;;5009818;28;51209;-51
2022/09/30 13:31:17;;;;;;;;;6.00;5.33;;;;;;;;5007546;28;50999;-51
2022/09/30 13:34:01;;;;;;;;;5.00;5.00;;;;;;;;5009469;28;51001;-53
2022/09/30 13:36:30;;;;;;;;;6.67;5.00;;;;;;;;5010091;28;50819;-51
2022/09/30 13:39:13;;;;;;;;;1.00;1.00;;;;;;;;5010061;28;51224;-51
2022/09/30 13:41:39;;;;;;;;;6.00;6.00;;;;;;;;5009621;27;51274;-50
2022/09/30 13:44:13;;;;;;;;;5.00;5.00;;;;;;;;5009634;28;51076;-51
2022/09/30 13:46:42;;;;;;;;;6.00;6.00;;;;;;;;5010005;28;51155;-49
2022/09/30 13:49:28;;;;;;;;;6.00;5.33;;;;;;;;5010323;28;50884;-52
2022/09/30 13:51:53;;;;;;;;;5.00;5.00;;;;;;;;5009700;28;50905;-52
2022/09/30 13:54:30;;;;;;;;;5.00;5.00;;;;;;;;5015462;28;50934;-51
2022/09/30 13:56:56;;;;;;;;;8.00;8.00;;;;;;;;5009712;28;51003;-53
2022/09/30 13:59:30;;;;;;;;;5.00;5.00;;;;;;;;5009126;28;50872;-51
2022/09/30 14:02:14;;;;;;;;;5.00;5.00;;;;;;;;5044336;27;51816;-50
2022/09/30 14:04:51;;;;;;;;;4.00;4.00;;;;;;;;5009631;27;50975;-52
2022/09/30 14:07:42;;;;;;;;;2.00;2.00;;;;;;;;5008851;28;50889;-50
2022/09/30 14:10:19;;;;;;;;;5.00;5.00;;;;;;;;5008346;28;51052;-51
2022/09/30 14:13:03;;;;;;;;;5.00;4.67;;;;;;;;5008727;27;52312;-49
2022/09/30 14:15:47;;;;;;;;;3.00;3.00;;;;;;;;5015151;27;50959;-51
2022/09/30 14:18:21;;;;;;;;;5.00;4.00;;;;;;;;4998448;28;50865;-50
2022/09/30 14:20:46;;;;;;;;;4.00;4.00;;;;;;;;5009258;28;51262;-51
2022/09/30 14:23:16;;;;;;;;;5.00;5.00;;;;;;;;5009611;28;51804;-50
2022/09/30 14:26:10;;;;;;;;;4.00;4.00;;;;;;;;5009473;27;51165;-51
2022/09/30 14:28:38;;;;;;;;;3.67;3.67;;;;;;;;5026653;28;51276;-50
2022/09/30 14:31:11;;;;;;;;;3.00;3.00;;;;;;;;5009718;27;51129;-51
2022/09/30 14:33:38;;;;;;;;;4.67;4.67;;;;;;;;5008613;28;52702;-50
2022/09/30 14:36:09;;;;;;;;;4.00;3.33;;;;;;;;5008876;28;50905;-50
2022/09/30 14:38:35;;;;;;;;;4.00;4.00;;;;;;;;5009133;28;51001;-51
2022/09/30 14:41:07;;;;;;;;;2.33;2.33;;;;;;;;5009865;28;51037;-51
2022/09/30 14:43:35;;;;;;;;;3.67;3.00;;;;;;;;5008512;27;52047;-50